Hill, Shane
United StatesManBorn 19762013 – 2026Runner id 445013
Events
50
49 race dates
Best pace
9.772
km/h · 2014
Best finish
15th
of 84 · 2022
Distance raced
3,732
km · splits not double-counted
Pace over time
km/h · higher is faster
Pace over time: 49 races and 1 split from 2013 to 2026, ranging from 3.40 to 9.90 kilometres per hour, where higher is faster. A second, age-graded series is drawn above it; the gap between the two is the age credit.
- Actual pace
- Age-graded pace
- Split of a race already plotted
Results
| Date | Event | Distance | Result | Pace km/h | Placing |
|---|---|---|---|---|---|
| 2013-08-03 | 50mi | 16:13:05 h | 4.962 | 15/17 | |
| 2013-10-12 | Defiance 50kUnited States | 50km | 6:05:34 h | 8.206 | 55/105 |
| 2013-12-14 | Pullman Winter Ultra 50K - DecUnited States | 50km | 6:05:36 h | 8.206 | 6/7 |
| 2014-03-28 | 100mi | 31:13:00 h | 5.155 | 40/42 | |
| 2014-04-26 | 50km | 5:07:00 h | 9.772 | 4/16 | |
| 2014-05-24 | 100mi | 23:19:00 h | 6.902 | 8/22 | |
| 2015-01-10 | 50km | 5:32:46 h | 9.015 | 2/5 | |
| 2015-04-11 | Lumberjack Endurance 100 km RunUnited States | 100km | 18:17:00 h | 5.469 | 8/11 |
| 2015-04-25 | 50km | 5:19:00 h | 9.404 | 10/32 | |
| 2015-05-22 | Pigtails Challenge 150 MileUnited States | 150mi | 2d 05:44:25 h | 4.492 | 5/6 |
| 2015-07-18 | Lone Ranger 24 hr Urban UltraUnited States | 24h | 81.690 km | 3.404 | 70/128 |
| 2016-03-05 | 34mi | 9:31:40 h | 5.743 | 20/21 | |
| 2016-04-30 | 50km | 9:10:34 h | 5.449 | 444/468 | |
| 2018-04-14 | 50km | 10:45:34 h | 4.647 | 22/24 | |
| 2021-05-15 | 50km | 8:30:40 h | 5.875 | 8/12 | |
| 2021-08-14 | Wildcat Ridge Romp 50 kmUnited States | 50km | 8:57:00 h | 5.587 | 24/30 |
| 2021-09-11 | 70mi | 28:29:05 h | 3.955 | 15/15 | |
| 2021-09-25 | Wawayanda Wonderful Wonhundred 50 Mile RaceUnited States | 50mi | 21:46:29 h | 3.695 | 8/8 |
| 2021-11-27 | 50km | 8:53:51 h | 5.620 | 20/22 | |
| 2022-02-26 | 50km | 6:22:31 h | 7.843 | 19/39 | |
| 2022-04-23 | 6h | 48.122 km | 8.020 | 19/21 | |
| 2022-05-07 | 55mi | 13:21:00 h | 6.630 | 21/31 | |
| 2022-06-18 | 50km | 7:24:14 h | 6.753 | 26/35 | |
| 2022-08-06 | 36mi | 8:58:24 h | 6.457 | 42/64 | |
| 2022-08-13 | 100mi | 22:58:35 h | 7.004 | 7/20 | |
| 2022-10-22 | 11h | 72.420 km | 6.584 | 15/84 | |
| 2022-11-12 | 50km | 6:59:06 h | 7.158 | 36/56 | |
| 2022-11-26 | 50km | 6:27:20 h | 7.745 | 27/49 | |
| 2022-12-10 | 12h | 85.327 km | 7.111 | 12/45 | |
| 2023-01-28 | 50km | 6:38:03 h | 7.537 | 8/27 | |
| 2023-02-25 | 50mi | 10:54:19 h | 7.379 | 11/15 | |
| 2023-03-25 | 50km | 7:53:43 h | 6.333 | 192/248 | |
| 2023-04-01 | 34mi | 8:47:41 h | 6.222 | 17/20 | |
| 2023-05-06 | 50km | 10:00:00 h | 5.000 | 33/34 | |
| 2023-06-24 | Finger Lakes Fifties 50 km RunUnited States | 50km | 8:26:13 h | 5.926 | 45/68 |
| 2023-07-15 | 12h | 59.867 km | 4.989 | 12/24 | |
| 2023-08-19 | 50km | 9:38:16 h | 5.188 | 52/82 | |
| 2023-09-08 | 30mi | 10:37:39 h | 4.543 | 50/67 | |
| 2023-10-21 | 50mi | 13:19:53 h | 6.036 | 14/15 | |
| 2024-03-23 | 50km | 7:53:43 h | 6.333 | 196/248 | |
| 2024-09-21 | 100km | 17:48:35 h | 5.615 | 9/16 | |
| 2024-11-09 | 100mi | 26:09:54 h | 6.151 | 119/194 | |
| 2024-11-09 | Tunnel Hill 100 Mile Race - 100km SplitUnited StatesIAU SilverSplit of a longer race in this career; not counted again in the distance total*Pearl River | 100km | 14:53:10 h | 6.718 | 142/176 |
| 2025-03-21 | 50mi | 13:55:14 h | 5.780 | 94/129 | |
| 2025-04-12 | Yakima Skyline Rim 50kUnited States | 50km | 11:32:00 h | 4.335 | 84/85 |
| 2025-06-21 | 100km | 15:46:02 h | 6.342 | 15/29 | |
| 2025-09-20 | 50km | 7:33:01 h | 6.622 | 42/80 | |
| 2026-03-27 | 100km | 20:54:57 h | 4.781 | 32/35 | |
| 2026-04-11 | Desert Rats Trail Running Festival 100 kmUnited States | 100km | 17:49:56 h | 5.608 | 197/232 |
| 2026-06-06 | 50mi | 15:02:00 h | 5.353 | 23/29 |